createdAt,value
2023-02-23T00:10:22.910Z,100048.72
2023-02-23T00:25:15.915Z,100043.76
2023-02-23T00:40:12.844Z,100043.14
2023-02-23T00:55:09.805Z,100038.11
2023-02-23T01:24:59.144Z,100040.47
2023-02-23T01:39:52.866Z,100034.66
2023-02-23T02:25:22.937Z,100014.13
2023-02-23T02:40:32.776Z,100008.58
2023-02-23T02:55:29.260Z,100010.88
2023-02-23T03:10:56.084Z,100008.35
2023-02-23T03:26:21.930Z,100010.66
2023-02-23T03:41:39.316Z,100007.63
2023-02-23T03:56:54.722Z,100014.72
2023-02-23T04:12:26.484Z,100006.41
2023-02-23T04:27:19.113Z,100022.31
2023-02-23T04:42:11.068Z,100024.98
2023-02-23T04:57:03.904Z,100022.95
2023-02-23T05:12:01.817Z,100021.68
2023-02-23T05:26:50.911Z,100021.17
2023-02-23T05:41:45.923Z,100024.78
2023-02-23T05:56:40.920Z,100022.16
2023-02-23T06:11:36.867Z,100031.92
2023-02-23T06:26:30.220Z,100050.55
2023-02-23T06:41:22.228Z,100064.63
2023-02-23T06:56:29.408Z,100074.52
2023-02-23T07:26:21.851Z,100096.81
2023-02-23T07:41:20.167Z,100099.88
2023-02-23T07:56:15.866Z,100104.91
2023-02-23T08:11:08.788Z,100103.82
2023-02-23T08:26:01.872Z,100101.77
2023-02-23T08:40:53.736Z,100099.66
2023-02-23T08:55:46.582Z,100110.78
2023-02-23T09:10:38.500Z,100105.58
2023-02-23T09:25:31.601Z,100115.03
2023-02-23T09:40:25.486Z,100120.42
2023-02-23T09:55:18.319Z,100123.51
2023-02-23T10:10:14.584Z,100127.61
2023-02-23T10:25:12.465Z,100133.80
2023-02-23T10:40:08.492Z,100147.69
2023-02-23T10:55:03.432Z,100143.06
2023-02-23T11:09:59.471Z,100139.15
2023-02-23T11:24:54.405Z,100126.25
2023-02-23T11:39:52.618Z,100113.92
2023-02-23T11:54:48.571Z,100104.95
2023-02-23T12:09:39.360Z,100094.64
2023-02-23T12:24:35.420Z,100090.88
2023-02-23T12:39:34.490Z,100084.03
2023-02-23T12:54:30.616Z,100072.80
2023-02-23T13:09:28.632Z,100073.14
2023-02-23T13:24:24.746Z,100066.06
2023-02-23T13:39:54.278Z,100066.14
2023-02-23T13:54:52.521Z,100055.13
2023-02-23T14:09:54.614Z,100051.93
2023-02-23T14:25:27.532Z,100051.02
2023-02-23T14:40:24.625Z,100048.16
2023-02-23T14:55:23.680Z,100044.23
2023-02-23T15:10:22.991Z,100055.62
2023-02-23T15:25:20.945Z,100050.23
2023-02-23T15:40:22.176Z,100059.34
2023-02-23T15:55:29.430Z,100059.14
2023-02-23T16:10:27.477Z,100057.11
2023-02-23T16:25:21.693Z,100049.80
2023-02-23T16:40:14.352Z,100054.42
2023-02-23T16:55:08.460Z,100054.02
2023-02-23T17:10:00.236Z,100063.41
2023-02-23T17:24:54.297Z,100068.76
2023-02-23T17:39:50.288Z,100077.95
2023-02-23T17:54:42.132Z,100079.02
2023-02-23T18:09:34.092Z,100081.85
2023-02-23T18:24:27.038Z,100088.89
2023-02-23T18:39:24.041Z,100095.22
2023-02-23T18:54:19.109Z,100079.47
2023-02-23T19:09:12.696Z,100079.34
2023-02-23T19:39:13.290Z,100079.02
2023-02-23T19:54:07.245Z,100078.61
2023-02-23T20:08:58.150Z,100086.73
2023-02-23T20:23:50.015Z,100080.86
2023-02-23T20:38:43.275Z,100081.60
2023-02-23T20:53:34.904Z,100076.88
2023-02-23T21:08:26.804Z,100084.28
2023-02-23T21:23:19.739Z,100076.73
2023-02-23T21:38:11.694Z,100076.77
2023-02-23T21:53:02.525Z,100070.16
2023-02-23T22:23:01.286Z,100073.73
